Time;durP1;ratioP1;P1;durP2;ratioP2;P2;SDS_P1;SDS_P2;PMS_P1;PMS_P2;Temp;Humidity;BMP_temperature;BMP_pressure;BME280_temperature;BME280_humidity;BME280_pressure;Samples;Min_cycle;Max_cycle;Signal;HPM_P1;HPM_P2
2022/11/30 00:01:13;;;;;;;11.73;7.30;;;;;;;6.70;59.65;101920.56;5000135;28;20382;-77
2022/11/30 00:03:39;;;;;;;12.95;7.72;;;;;;;6.73;59.74;101920.31;5013977;28;20875;-77
2022/11/30 00:06:07;;;;;;;10.60;7.82;;;;;;;6.73;59.83;101922.13;5009647;28;20381;-78
2022/11/30 00:08:33;;;;;;;9.52;6.97;;;;;;;6.79;59.69;101925.16;5012573;28;20877;-77
2022/11/30 00:10:58;;;;;;;9.20;7.30;;;;;;;6.86;59.38;101931.66;5011705;28;20404;-77
2022/11/30 00:13:24;;;;;;;9.32;7.13;;;;;;;6.77;59.57;101926.19;5010987;28;20396;-77
2022/11/30 00:15:49;;;;;;;9.37;7.30;;;;;;;6.66;60.15;101925.25;5011696;28;20753;-77
2022/11/30 00:18:16;;;;;;;8.97;7.27;;;;;;;6.71;60.05;101932.78;5010871;28;20446;-77
2022/11/30 00:20:45;;;;;;;10.35;7.60;;;;;;;6.80;59.75;101929.44;5006896;28;20436;-78
2022/11/30 00:23:10;;;;;;;8.10;7.10;;;;;;;6.83;59.64;101923.97;5000640;28;20392;-77
2022/11/30 00:25:36;;;;;;;9.30;7.97;;;;;;;6.84;59.94;101932.69;5011167;28;20710;-77
2022/11/30 00:28:01;;;;;;;9.83;7.53;;;;;;;6.80;59.93;101937.34;5011383;28;20871;-77
2022/11/30 00:30:27;;;;;;;9.13;6.97;;;;;;;6.81;59.84;101933.78;5010174;28;20400;-77
2022/11/30 00:32:56;;;;;;;9.35;7.82;;;;;;;6.76;59.96;101928.00;5011495;28;20388;-78
2022/11/30 00:35:22;;;;;;;8.55;6.97;;;;;;;6.83;60.13;101931.03;5013073;28;20407;-78
2022/11/30 00:37:47;;;;;;;8.27;6.75;;;;;;;6.84;59.82;101928.28;5012097;28;20849;-77
2022/11/30 00:40:13;;;;;;;9.20;6.97;;;;;;;6.81;60.05;101927.69;5011586;28;20376;-78
2022/11/30 00:42:39;;;;;;;8.47;6.67;;;;;;;6.84;59.88;101935.34;5011343;28;20453;-77
2022/11/30 00:45:05;;;;;;;7.45;6.63;;;;;;;6.91;59.78;101928.63;5011389;28;20697;-77
2022/11/30 00:47:30;;;;;;;8.20;6.50;;;;;;;6.92;59.59;101930.34;5011564;28;20396;-77
2022/11/30 00:49:56;;;;;;;7.90;6.27;;;;;;;6.88;59.82;101932.38;5011473;28;20412;-78
2022/11/30 00:52:21;;;;;;;8.45;6.57;;;;;;;6.82;60.14;101919.63;5012950;28;20384;-78
2022/11/30 00:54:47;;;;;;;7.55;6.15;;;;;;;6.78;59.99;101920.00;5026383;28;20447;-79
2022/11/30 00:57:12;;;;;;;7.00;5.77;;;;;;;6.71;59.77;101924.88;5012591;28;20872;-78
2022/11/30 00:59:38;;;;;;;8.93;7.07;;;;;;;6.76;59.80;101922.75;5020677;28;20484;-79
2022/11/30 01:02:03;;;;;;;8.05;6.53;;;;;;;6.83;59.79;101917.84;5013292;28;20376;-79
2022/11/30 01:04:28;;;;;;;7.63;6.40;;;;;;;6.75;59.97;101909.66;5013902;28;20395;-79
2022/11/30 01:06:54;;;;;;;7.77;6.50;;;;;;;6.80;60.10;101915.44;5013237;28;20376;-79
2022/11/30 01:09:19;;;;;;;7.90;6.40;;;;;;;6.79;59.90;101911.97;5013732;28;20404;-79
2022/11/30 01:11:45;;;;;;;7.57;6.47;;;;;;;6.93;59.73;101920.63;5015293;28;20380;-78
2022/11/30 01:14:10;;;;;;;8.43;6.60;;;;;;;6.88;59.47;101919.19;5014128;28;20380;-78
2022/11/30 01:16:36;;;;;;;7.85;6.28;;;;;;;6.78;59.54;101912.91;5015394;28;20388;-79
2022/11/30 01:19:02;;;;;;;7.57;6.53;;;;;;;6.88;59.54;101921.00;5012738;28;20387;-79
2022/11/30 01:21:28;;;;;;;7.30;6.22;;;;;;;6.87;59.30;101914.03;5008640;28;20811;-78
2022/11/30 01:23:54;;;;;;;6.90;6.18;;;;;;;6.86;59.46;101928.16;5012131;28;20892;-78
2022/11/30 01:26:20;;;;;;;6.70;5.90;;;;;;;6.90;59.53;101926.97;5011896;28;20455;-78
2022/11/30 01:28:50;;;;;;;6.83;6.00;;;;;;;6.92;59.28;101918.97;5011760;28;20460;-78
2022/11/30 01:31:16;;;;;;;7.40;6.22;;;;;;;6.94;58.88;101930.22;5032411;28;20468;-78
2022/11/30 01:33:42;;;;;;;8.05;6.85;;;;;;;6.97;59.05;101924.69;5013607;28;20376;-78
2022/11/30 01:36:14;;;;;;;9.23;7.18;;;;;;;6.93;59.08;101917.97;5013326;28;20391;-78
2022/11/30 01:38:43;;;;;;;7.65;6.50;;;;;;;6.92;59.27;101924.22;5012900;28;20852;-78
2022/11/30 01:41:11;;;;;;;6.97;6.00;;;;;;;6.87;59.15;101914.84;5013129;28;20858;-78
2022/11/30 01:43:42;;;;;;;8.35;6.68;;;;;;;6.90;59.58;101921.72;5012296;28;20423;-78
2022/11/30 01:46:19;;;;;;;9.60;7.10;;;;;;;6.88;59.04;101919.19;5012383;28;20416;-78
2022/11/30 01:48:53;;;;;;;9.43;7.07;;;;;;;6.89;59.19;101912.09;5011800;28;20402;-77
2022/11/30 01:51:18;;;;;;;8.25;6.43;;;;;;;6.95;59.37;101918.72;5006379;28;20394;-77
2022/11/30 01:53:44;;;;;;;8.00;6.37;;;;;;;6.95;58.98;101911.66;5002919;28;20742;-77
2022/11/30 01:56:09;;;;;;;9.25;6.80;;;;;;;6.95;58.99;101916.06;5012300;28;20380;-78
2022/11/30 01:58:35;;;;;;;7.88;5.95;;;;;;;6.96;58.96;101923.88;5009808;28;20869;-77
2022/11/30 02:01:01;;;;;;;8.60;6.03;;;;;;;6.92;59.31;101918.97;5007674;28;20413;-77
2022/11/30 02:03:38;;;;;;;8.20;6.10;;;;;;;6.93;59.15;101910.91;5012662;28;20772;-77
2022/11/30 02:06:04;;;;;;;10.43;6.50;;;;;;;6.99;58.97;101907.81;5011187;28;20449;-77
2022/11/30 02:08:30;;;;;;;12.33;7.10;;;;;;;7.03;58.87;101906.63;5006176;28;20400;-77
2022/11/30 02:10:59;;;;;;;8.45;6.18;;;;;;;6.98;58.90;101908.78;5013848;28;20443;-76
2022/11/30 02:13:31;;;;;;;7.97;6.05;;;;;;;6.94;59.05;101915.25;5025281;28;20378;-75
2022/11/30 02:16:21;;;;;;;11.20;6.35;;;;;;;6.88;59.22;101907.81;5033409;28;20382;-76
2022/11/30 02:18:49;;;;;;;10.77;6.95;;;;;;;6.85;59.00;101903.59;5019729;28;20431;-76
2022/11/30 02:21:38;;;;;;;10.00;6.53;;;;;;;6.93;59.03;101907.44;4998993;28;20456;-76
2022/11/30 02:24:12;;;;;;;7.80;5.97;;;;;;;6.91;58.97;101909.34;4996436;28;20421;-76
2022/11/30 02:26:49;;;;;;;8.88;6.13;;;;;;;6.79;59.29;101911.13;5032762;28;20469;-76
2022/11/30 02:29:29;;;;;;;9.77;6.40;;;;;;;6.86;59.36;101910.56;5019379;28;20474;-76
2022/11/30 02:32:05;;;;;;;11.23;6.45;;;;;;;6.95;59.17;101916.06;5032676;28;20818;-76
2022/11/30 02:34:34;;;;;;;8.48;5.63;;;;;;;6.93;59.11;101920.63;5014950;28;20998;-77
2022/11/30 02:37:01;;;;;;;8.68;5.47;;;;;;;6.89;59.29;101914.75;5020932;28;20386;-76
2022/11/30 02:39:26;;;;;;;9.40;5.80;;;;;;;6.92;59.49;101909.25;5016714;28;20463;-76
2022/11/30 02:41:52;;;;;;;10.70;6.47;;;;;;;6.91;59.15;101912.81;5022973;28;20375;-76
2022/11/30 02:44:20;;;;;;;9.43;5.70;;;;;;;6.83;59.09;101909.94;5019833;28;20403;-77
2022/11/30 02:47:03;;;;;;;9.27;5.95;;;;;;;6.88;59.14;101915.72;5019942;28;20409;-77
2022/11/30 02:49:41;;;;;;;8.77;6.07;;;;;;;6.90;59.20;101911.16;5009284;28;20494;-78
2022/11/30 02:52:09;;;;;;;7.28;5.35;;;;;;;6.82;59.65;101911.72;5016134;28;20376;-78
2022/11/30 02:54:34;;;;;;;7.13;5.20;;;;;;;6.80;59.76;101908.38;5016194;28;20383;-78
2022/11/30 02:57:00;;;;;;;6.22;5.00;;;;;;;6.80;59.66;101912.81;5031158;28;20380;-78
2022/11/30 02:59:25;;;;;;;6.73;5.13;;;;;;;6.89;59.59;101901.56;5020830;28;20387;-78
2022/11/30 03:01:51;;;;;;;5.20;4.70;;;;;;;6.93;59.45;101907.44;5030661;28;20478;-79
2022/11/30 03:04:16;;;;;;;5.57;4.70;;;;;;;6.91;59.72;101904.09;5017828;28;20813;-79
2022/11/30 03:06:42;;;;;;;76.90;46.97;;;;;;;6.94;59.46;101906.50;5014785;28;20409;-79
2022/11/30 03:09:07;;;;;;;27.73;20.70;;;;;;;7.00;59.44;101906.03;5015108;28;20710;-79
2022/11/30 03:11:33;;;;;;;42.40;38.90;;;;;;;7.03;59.16;101908.44;5015639;28;20889;-79
2022/11/30 03:13:58;;;;;;;12.05;9.88;;;;;;;7.06;59.35;101908.19;5029374;28;20938;-78
2022/11/30 03:16:24;;;;;;;28.00;25.55;;;;;;;7.00;59.32;101909.47;5013138;28;20380;-78
2022/11/30 03:18:49;;;;;;;33.60;30.80;;;;;;;7.02;59.32;101898.81;5011383;28;20582;-79
2022/11/30 03:21:15;;;;;;;8.27;7.40;;;;;;;7.01;59.54;101903.28;5021745;28;20444;-78
2022/11/30 03:23:40;;;;;;;9.38;8.50;;;;;;;7.01;59.67;101900.63;5033461;28;20432;-78
2022/11/30 03:26:07;;;;;;;52.10;47.80;;;;;;;7.04;59.31;101897.78;5008447;28;20413;-79
2022/11/30 03:28:34;;;;;;;14.38;13.10;;;;;;;7.08;59.73;101906.28;5005108;28;20868;-78
2022/11/30 03:31:00;;;;;;;9.38;8.48;;;;;;;7.04;59.47;101908.31;5027376;28;20538;-79
2022/11/30 03:33:25;;;;;;;9.70;8.87;;;;;;;7.03;59.48;101905.78;5014645;28;20470;-78
2022/11/30 03:36:17;;;;;;;10.17;8.63;;;;;;;7.07;59.80;101902.78;5014207;28;20372;-78
2022/11/30 03:38:42;;;;;;;7.32;6.13;;;;;;;7.15;59.40;101907.50;5010854;28;20391;-78
2022/11/30 03:41:12;;;;;;;13.63;12.32;;;;;;;7.04;59.64;101907.44;5025671;28;20368;-76
2022/11/30 03:43:37;;;;;;;14.80;13.50;;;;;;;7.00;59.58;101914.75;5008009;28;20382;-77
2022/11/30 03:46:03;;;;;;;6.03;5.50;;;;;;;6.99;60.00;101909.63;5021886;28;20750;-77
2022/11/30 03:48:29;;;;;;;22.27;20.40;;;;;;;7.03;59.98;101919.81;5012142;28;20379;-77
2022/11/30 03:50:55;;;;;;;7.00;6.30;;;;;;;7.01;59.83;101912.97;5013094;28;20415;-78
2022/11/30 03:53:22;;;;;;;9.97;8.97;;;;;;;7.07;59.74;101923.88;5013977;28;20385;-77
2022/11/30 03:55:52;;;;;;;9.80;8.77;;;;;;;7.06;59.82;101922.22;5026004;28;20383;-78
2022/11/30 03:58:18;;;;;;;36.22;33.45;;;;;;;7.08;59.23;101920.28;5013169;28;20387;-77
2022/11/30 04:00:44;;;;;;;5.37;4.87;;;;;;;7.01;60.08;101915.63;5013069;28;20380;-77
2022/11/30 04:03:09;;;;;;;5.50;5.00;;;;;;;7.03;60.25;101916.34;5030290;28;20382;-77
2022/11/30 04:05:34;;;;;;;6.18;5.57;;;;;;;7.12;59.59;101915.63;5024379;28;20403;-78
2022/11/30 04:08:00;;;;;;;6.40;5.10;;;;;;;7.06;59.96;101908.19;5013782;28;20376;-77
2022/11/30 04:10:25;;;;;;;7.97;7.00;;;;;;;7.01;60.17;101916.44;5012725;28;20408;-77
2022/11/30 04:12:51;;;;;;;5.75;5.15;;;;;;;6.99;60.25;101912.25;5020815;28;20378;-77
2022/11/30 04:15:16;;;;;;;7.47;6.47;;;;;;;6.96;60.21;101913.31;5031812;28;20738;-77
2022/11/30 04:17:42;;;;;;;6.03;5.20;;;;;;;6.99;60.29;101921.00;5025307;28;20415;-77
2022/11/30 04:20:07;;;;;;;7.55;6.00;;;;;;;7.03;60.32;101918.97;5012246;28;20439;-78
2022/11/30 04:22:33;;;;;;;8.13;6.70;;;;;;;6.99;60.22;101913.09;5011542;28;20384;-78
2022/11/30 04:24:59;;;;;;;10.40;8.63;;;;;;;6.97;60.46;101924.69;5027935;28;20381;-79
2022/11/30 04:27:24;;;;;;;9.37;8.13;;;;;;;6.94;60.84;101923.16;5020734;28;20376;-79
2022/11/30 04:29:50;;;;;;;16.93;13.20;;;;;;;6.88;60.76;101923.63;5012299;28;20414;-79
2022/11/30 04:32:15;;;;;;;30.53;21.20;;;;;;;6.89;61.00;101923.47;5024429;28;20816;-78
2022/11/30 04:34:41;;;;;;;22.45;15.02;;;;;;;6.99;60.66;101926.28;5029314;28;20719;-78
2022/11/30 04:37:07;;;;;;;12.47;9.70;;;;;;;7.00;60.62;101930.56;5026420;28;20477;-78
2022/11/30 04:39:33;;;;;;;12.98;10.40;;;;;;;6.98;60.69;101927.22;5024061;28;20727;-79
2022/11/30 04:41:59;;;;;;;11.85;9.13;;;;;;;7.02;60.75;101931.31;5032634;28;20390;-79
2022/11/30 04:44:24;;;;;;;17.73;13.87;;;;;;;7.05;60.71;101927.59;5025368;28;20418;-78
2022/11/30 04:46:50;;;;;;;13.18;10.27;;;;;;;6.99;60.54;101928.09;5025020;28;20437;-79
2022/11/30 04:49:15;;;;;;;13.40;9.90;;;;;;;6.90;61.11;101929.63;5025794;28;20382;-79
2022/11/30 04:51:41;;;;;;;13.10;10.33;;;;;;;6.93;61.29;101934.63;5023877;28;20398;-78
2022/11/30 04:54:06;;;;;;;14.43;12.10;;;;;;;6.94;61.23;101933.69;5015875;28;21010;-79
2022/11/30 04:56:32;;;;;;;15.90;11.63;;;;;;;6.86;61.36;101933.41;5011651;28;20944;-78
2022/11/30 04:59:00;;;;;;;13.88;10.45;;;;;;;6.87;61.55;101941.22;5020247;28;21013;-78
2022/11/30 05:01:25;;;;;;;12.27;9.90;;;;;;;6.77;61.53;101945.50;5015840;28;20574;-77
2022/11/30 05:03:51;;;;;;;19.47;15.73;;;;;;;6.74;61.96;101947.53;5019297;28;20473;-78
2022/11/30 05:06:16;;;;;;;15.30;11.67;;;;;;;6.64;62.22;101945.56;5013769;28;20478;-79
2022/11/30 05:08:43;;;;;;;14.50;11.60;;;;;;;6.65;62.39;101943.78;5009110;28;20407;-78
2022/11/30 05:11:08;;;;;;;12.98;10.57;;;;;;;6.64;62.53;101945.56;5003676;28;20908;-78
2022/11/30 05:13:34;;;;;;;12.17;9.80;;;;;;;6.65;62.62;101943.78;5003511;28;20493;-78
2022/11/30 05:15:59;;;;;;;10.65;9.52;;;;;;;6.64;62.46;101953.47;5009823;28;20869;-77
2022/11/30 05:18:25;;;;;;;11.57;8.20;;;;;;;6.58;62.62;101953.09;5002446;28;20907;-78
2022/11/30 05:20:51;;;;;;;14.53;10.37;;;;;;;6.55;62.87;101951.50;5009585;28;20384;-78
2022/11/30 05:23:18;;;;;;;10.52;7.95;;;;;;;6.59;63.37;101960.03;5009170;28;20398;-78
2022/11/30 05:25:44;;;;;;;9.05;7.45;;;;;;;6.58;63.51;101961.00;5026522;28;20391;-78
2022/11/30 05:28:10;;;;;;;8.70;7.07;;;;;;;6.65;63.63;101965.69;5026995;28;20385;-79
2022/11/30 05:30:38;;;;;;;7.88;6.10;;;;;;;6.48;64.51;101964.31;5028484;28;20410;-79
2022/11/30 05:33:04;;;;;;;8.27;6.32;;;;;;;6.36;64.93;101973.09;5031655;28;20410;-79
2022/11/30 05:35:29;;;;;;;8.88;6.95;;;;;;;6.37;64.96;101966.03;5031367;28;20415;-78
2022/11/30 05:37:55;;;;;;;10.10;7.00;;;;;;;6.35;65.35;101965.31;5029300;28;20382;-80
2022/11/30 05:40:20;;;;;;;9.43;7.07;;;;;;;6.42;65.49;101969.19;5026492;28;20378;-80
2022/11/30 05:42:46;;;;;;;11.27;7.50;;;;;;;6.42;65.47;101972.66;5029682;28;20480;-80
2022/11/30 05:45:11;;;;;;;11.47;7.30;;;;;;;6.35;65.81;101974.06;5040459;28;20425;-79
2022/11/30 05:47:36;;;;;;;9.50;7.33;;;;;;;6.41;65.18;101959.59;5019073;28;20409;-79
2022/11/30 05:50:02;;;;;;;10.40;7.20;;;;;;;6.54;65.60;101980.63;5046113;28;20437;-79
2022/11/30 05:52:28;;;;;;;10.20;7.55;;;;;;;6.51;65.22;101971.97;5033971;28;20910;-79
2022/11/30 05:54:53;;;;;;;12.37;8.10;;;;;;;6.61;65.12;101974.78;5020270;28;20372;-78
2022/11/30 05:57:18;;;;;;;9.73;7.57;;;;;;;6.56;65.40;101973.44;5009648;28;20471;-78
2022/11/30 05:59:44;;;;;;;10.55;8.05;;;;;;;6.52;65.85;101978.09;5012072;28;20372;-78
2022/11/30 06:02:09;;;;;;;10.30;8.57;;;;;;;6.48;65.87;101980.13;5011263;28;20417;-78
2022/11/30 06:04:35;;;;;;;13.60;9.10;;;;;;;6.45;66.26;101977.69;5014096;28;20388;-80
2022/11/30 06:07:00;;;;;;;15.95;9.50;;;;;;;6.56;65.77;101979.56;5014854;28;20952;-78
2022/11/30 06:09:26;;;;;;;14.27;9.80;;;;;;;6.60;65.73;101980.16;5014659;28;20401;-78
2022/11/30 06:11:51;;;;;;;14.33;9.63;;;;;;;6.51;66.37;101987.78;5023055;28;20420;-79
2022/11/30 06:14:17;;;;;;;15.02;9.95;;;;;;;6.65;65.72;101981.50;5036625;28;20435;-79
2022/11/30 06:16:42;;;;;;;17.23;11.03;;;;;;;6.73;65.80;101990.66;5025245;28;20372;-79
2022/11/30 06:19:08;;;;;;;15.73;11.43;;;;;;;6.74;65.39;101989.69;5014098;28;20863;-80
2022/11/30 06:21:33;;;;;;;13.52;8.68;;;;;;;6.46;66.62;102000.47;5011538;28;20411;-79
2022/11/30 06:23:58;;;;;;;16.43;10.83;;;;;;;6.32;67.17;101993.56;5016808;28;20380;-77
2022/11/30 06:26:24;;;;;;;14.73;9.87;;;;;;;6.59;66.50;101997.78;5022492;28;20876;-79
2022/11/30 06:28:49;;;;;;;13.15;8.43;;;;;;;6.59;66.74;102000.41;5022302;28;20972;-79
2022/11/30 06:31:15;;;;;;;11.93;8.07;;;;;;;6.49;67.18;102005.50;5018894;28;20419;-79
2022/11/30 06:33:41;;;;;;;11.97;8.10;;;;;;;6.63;66.62;102003.66;5018725;28;20372;-79
2022/11/30 06:36:06;;;;;;;11.00;8.67;;;;;;;6.86;66.09;102012.50;5018676;28;20860;-79
2022/11/30 06:38:32;;;;;;;11.02;8.10;;;;;;;6.86;65.56;102007.22;5017368;28;20412;-79
2022/11/30 06:41:08;;;;;;;12.40;8.25;;;;;;;6.68;66.38;101999.75;5016653;28;20863;-80
2022/11/30 06:43:35;;;;;;;11.03;7.93;;;;;;;6.68;66.26;102005.00;5016681;28;20388;-79
2022/11/30 06:46:02;;;;;;;12.50;8.57;;;;;;;6.75;66.24;102008.00;5014740;28;20440;-78
2022/11/30 06:48:28;;;;;;;12.02;8.13;;;;;;;6.95;65.84;102006.56;5015499;28;20435;-78
2022/11/30 06:50:53;;;;;;;11.95;8.02;;;;;;;6.99;65.39;102004.53;5014883;28;20780;-79
2022/11/30 06:53:19;;;;;;;11.70;8.35;;;;;;;7.02;65.43;102002.50;5013844;28;20376;-78
2022/11/30 06:55:44;;;;;;;11.50;8.37;;;;;;;7.00;65.32;102006.19;5014935;28;20471;-79
2022/11/30 06:58:11;;;;;;;12.13;8.37;;;;;;;7.02;65.85;102010.41;5015228;28;20376;-78
2022/11/30 07:00:37;;;;;;;12.93;8.80;;;;;;;6.92;65.77;102008.59;5015641;28;20855;-78
2022/11/30 07:03:04;;;;;;;11.82;8.30;;;;;;;7.01;65.48;102013.16;5022749;28;20882;-78
2022/11/30 07:05:35;;;;;;;11.18;8.27;;;;;;;7.01;65.47;102007.91;5014637;28;20379;-78
2022/11/30 07:08:00;;;;;;;9.80;6.80;;;;;;;6.75;65.93;102002.75;5015830;28;20873;-78
2022/11/30 07:10:26;;;;;;;10.50;7.10;;;;;;;6.86;65.93;102015.13;5026697;28;20530;-78
2022/11/30 07:12:55;;;;;;;8.95;6.50;;;;;;;6.73;65.98;102009.09;5026482;28;20382;-78
2022/11/30 07:15:20;;;;;;;9.82;7.00;;;;;;;6.58;66.85;102017.16;5029050;28;20374;-78
2022/11/30 07:17:46;;;;;;;11.00;7.03;;;;;;;6.72;66.55;102031.13;5030694;28;20451;-79
2022/11/30 07:20:12;;;;;;;9.52;6.65;;;;;;;6.62;66.49;102021.25;5023035;28;20390;-78
2022/11/30 07:22:37;;;;;;;10.18;6.50;;;;;;;6.58;66.70;102018.97;5025379;28;20388;-79
2022/11/30 07:27:47;;;;;;;8.80;6.00;;;;;;;6.58;66.20;102034.78;5029930;28;20386;-78
2022/11/30 07:30:13;;;;;;;9.67;6.70;;;;;;;6.58;66.59;102030.34;5025625;28;20897;-76
2022/11/30 07:32:38;;;;;;;10.30;6.87;;;;;;;6.56;66.31;102034.03;5027727;28;20388;-77
2022/11/30 07:35:04;;;;;;;10.67;7.03;;;;;;;6.64;65.92;102035.16;5024137;28;20394;-78
2022/11/30 07:37:29;;;;;;;10.40;6.50;;;;;;;6.62;66.27;102036.22;5025456;28;20487;-79
2022/11/30 07:39:55;;;;;;;11.68;7.25;;;;;;;6.64;66.14;102042.22;5020927;28;20402;-77
2022/11/30 07:42:21;;;;;;;9.70;6.53;;;;;;;6.74;65.76;102037.13;4997007;28;20483;-79
2022/11/30 07:44:48;;;;;;;8.30;5.90;;;;;;;6.41;66.62;102031.56;5011005;28;20382;-78
2022/11/30 07:47:14;;;;;;;9.88;6.85;;;;;;;6.50;66.39;102024.78;5015197;28;20761;-79
2022/11/30 07:49:40;;;;;;;8.95;6.43;;;;;;;6.37;66.33;102040.63;5013618;28;20400;-77
2022/11/30 07:52:06;;;;;;;10.73;6.78;;;;;;;6.39;66.44;102036.09;5019457;28;20862;-77
2022/11/30 07:54:31;;;;;;;9.57;6.33;;;;;;;6.37;66.40;102043.25;5016854;28;20694;-78
2022/11/30 07:56:57;;;;;;;13.13;6.83;;;;;;;6.29;66.97;102048.25;5052221;28;20396;-78
2022/11/30 07:59:22;;;;;;;10.23;6.73;;;;;;;6.24;66.83;102045.91;5029134;28;20382;-78
2022/11/30 08:01:47;;;;;;;9.37;6.57;;;;;;;6.43;66.38;102058.63;5025104;28;20378;-78
2022/11/30 08:04:13;;;;;;;10.17;6.97;;;;;;;6.42;66.08;102049.03;5028387;28;20374;-77
2022/11/30 08:06:39;;;;;;;10.20;6.70;;;;;;;6.18;66.61;102046.38;5020939;28;20382;-75
2022/11/30 08:09:06;;;;;;;10.48;7.30;;;;;;;6.39;66.01;102053.69;5024597;28;20378;-78
2022/11/30 08:11:34;;;;;;;10.38;6.70;;;;;;;6.29;65.95;102051.69;5030592;28;20759;-78
2022/11/30 08:14:01;;;;;;;12.50;7.70;;;;;;;6.38;66.43;102060.75;5036097;28;20941;-79
2022/11/30 08:16:28;;;;;;;10.77;8.10;;;;;;;6.38;66.33;102052.84;5034318;28;20374;-79
2022/11/30 08:18:57;;;;;;;10.10;6.78;;;;;;;6.34;66.26;102050.53;5027581;28;20395;-79
2022/11/30 08:21:23;;;;;;;11.65;7.50;;;;;;;6.39;66.16;102037.88;5031868;28;20378;-79
2022/11/30 08:23:51;;;;;;;11.50;7.43;;;;;;;6.43;66.39;102048.09;5029979;28;20379;-78
2022/11/30 08:26:19;;;;;;;11.63;6.85;;;;;;;6.27;66.64;102047.50;5028734;28;20374;-78
2022/11/30 08:28:46;;;;;;;10.05;6.90;;;;;;;6.39;66.34;102048.41;5029537;28;20723;-77
2022/11/30 08:31:21;;;;;;;11.40;7.32;;;;;;;6.36;66.94;102048.66;5019729;28;20440;-77
2022/11/30 08:33:47;;;;;;;10.32;6.63;;;;;;;6.42;66.49;102053.47;5012966;28;20409;-78
2022/11/30 08:36:14;;;;;;;11.57;7.18;;;;;;;6.58;66.13;102048.78;5028182;28;20878;-78
2022/11/30 08:38:41;;;;;;;8.95;5.50;;;;;;;6.30;65.78;102048.13;5023039;28;20382;-77
2022/11/30 08:41:08;;;;;;;8.40;5.30;;;;;;;6.21;66.33;102051.44;5021271;28;20492;-78
2022/11/30 08:43:33;;;;;;;8.10;5.43;;;;;;;6.00;66.77;102052.94;5027441;28;20585;-78
2022/11/30 08:46:02;;;;;;;7.77;5.80;;;;;;;6.07;66.36;102055.03;5015608;28;20944;-77
2022/11/30 08:48:27;;;;;;;8.90;5.40;;;;;;;6.24;65.94;102058.25;5012682;28;20474;-77
2022/11/30 08:51:02;;;;;;;8.15;5.38;;;;;;;6.13;66.37;102051.13;5006990;28;21388;-77
2022/11/30 08:53:28;;;;;;;7.63;5.25;;;;;;;6.02;66.87;102051.03;4999495;28;20756;-79
2022/11/30 08:55:58;;;;;;;8.27;5.35;;;;;;;6.08;66.69;102056.69;5012574;28;20840;-78
2022/11/30 08:58:25;;;;;;;14.05;10.55;;;;;;;6.11;66.73;102043.31;5011120;28;20392;-79
2022/11/30 09:00:51;;;;;;;9.53;6.57;;;;;;;6.11;66.32;102047.75;5012234;28;20910;-77
2022/11/30 09:03:17;;;;;;;7.25;5.40;;;;;;;6.22;66.05;102047.81;5011177;28;20388;-77
2022/11/30 09:05:42;;;;;;;7.97;6.17;;;;;;;6.21;65.80;102047.94;5012767;28;20450;-77
2022/11/30 09:08:08;;;;;;;6.93;4.60;;;;;;;6.02;66.66;102056.28;5018054;28;20730;-78
2022/11/30 09:10:33;;;;;;;8.02;5.70;;;;;;;6.00;66.48;102051.13;5000405;28;20880;-77
2022/11/30 09:12:59;;;;;;;6.53;4.10;;;;;;;6.12;65.99;102062.56;5030586;28;20772;-77
2022/11/30 09:15:24;;;;;;;6.63;4.50;;;;;;;6.07;66.10;102067.34;5015290;28;20696;-77
2022/11/30 09:17:49;;;;;;;7.27;4.77;;;;;;;6.04;65.93;102049.13;5019661;28;20423;-77
2022/11/30 09:20:15;;;;;;;6.37;4.20;;;;;;;6.12;65.72;102041.50;5011538;28;20387;-79
2022/11/30 09:22:41;;;;;;;5.32;4.03;;;;;;;6.09;65.83;102050.47;5006285;28;20734;-76
2022/11/30 09:25:08;;;;;;;8.02;5.35;;;;;;;5.92;66.05;102041.13;5011374;28;20391;-76
2022/11/30 09:27:33;;;;;;;5.32;3.72;;;;;;;5.83;66.62;102038.25;5010739;28;20388;-76
2022/11/30 09:29:59;;;;;;;7.23;4.80;;;;;;;6.19;65.99;102044.56;5011291;28;20414;-76
2022/11/30 09:32:24;;;;;;;6.97;4.90;;;;;;;6.41;65.11;102043.88;5020293;28;20928;-76
2022/11/30 09:34:50;;;;;;;7.25;4.55;;;;;;;6.38;65.71;102046.75;5015176;28;20916;-75
2022/11/30 09:37:15;;;;;;;6.85;3.97;;;;;;;6.56;66.78;102041.94;5026892;28;20378;-77
2022/11/30 09:39:41;;;;;;;7.13;4.30;;;;;;;7.15;68.29;102023.53;5022658;28;20670;-76
2022/11/30 09:42:21;;;;;;;4.90;3.80;;;;;;;7.00;65.83;102035.19;5011943;28;20381;-77
2022/11/30 09:44:58;;;;;;;7.13;4.50;;;;;;;6.66;64.89;102033.28;5012103;28;20394;-76
2022/11/30 09:47:51;;;;;;;7.10;4.53;;;;;;;6.39;65.86;102035.25;5011305;28;20400;-75
2022/11/30 09:50:23;;;;;;;7.43;4.30;;;;;;;6.31;65.92;102047.16;5000041;28;20416;-76
2022/11/30 09:53:02;;;;;;;9.48;4.70;;;;;;;6.20;66.16;102041.00;5012064;28;20411;-76
2022/11/30 09:55:46;;;;;;;6.18;4.30;;;;;;;6.22;66.42;102042.56;5004626;28;20388;-75
2022/11/30 09:58:25;;;;;;;6.47;4.45;;;;;;;6.07;66.18;102036.59;5014962;28;20384;-75
2022/11/30 10:00:51;;;;;;;6.38;4.28;;;;;;;6.18;66.54;102029.75;5020832;28;20474;-75
2022/11/30 10:03:20;;;;;;;7.13;4.40;;;;;;;5.91;66.59;102042.06;5008749;28;20467;-77
2022/11/30 10:06:10;;;;;;;7.03;4.82;;;;;;;6.06;66.35;102034.91;5008975;28;20408;-76
2022/11/30 10:08:51;;;;;;;6.55;4.88;;;;;;;6.00;66.59;102039.78;5005249;28;20398;-76
2022/11/30 10:11:53;;;;;;;6.78;4.43;;;;;;;5.90;66.26;102042.97;5009996;28;20439;-78
2022/11/30 10:14:30;;;;;;;7.10;4.90;;;;;;;6.11;65.58;102048.59;5016316;28;20882;-77
2022/11/30 10:17:11;;;;;;;7.55;5.22;;;;;;;5.98;65.84;102046.91;5029679;28;20416;-77
2022/11/30 10:20:03;;;;;;;8.00;5.32;;;;;;;5.95;66.41;102045.31;5017111;28;20440;-77
2022/11/30 10:22:54;;;;;;;8.27;5.85;;;;;;;5.98;66.12;102037.25;5008178;28;20390;-77
2022/11/30 10:25:28;;;;;;;8.20;5.82;;;;;;;6.00;66.32;102037.97;5010158;28;20422;-76
2022/11/30 10:28:20;;;;;;;9.23;6.25;;;;;;;6.35;65.46;102039.88;5012765;28;20384;-76
2022/11/30 10:30:48;;;;;;;8.27;6.00;;;;;;;6.05;66.32;102027.97;4996616;28;20444;-76
2022/11/30 10:33:18;;;;;;;9.02;5.75;;;;;;;6.34;65.60;102019.78;5033757;28;20448;-78
2022/11/30 10:35:51;;;;;;;9.10;6.03;;;;;;;6.29;65.72;102024.53;5019109;28;20379;-77
2022/11/30 10:38:42;;;;;;;7.78;4.97;;;;;;;6.16;66.52;102026.34;5022805;28;20378;-78
2022/11/30 10:41:16;;;;;;;7.00;5.00;;;;;;;6.32;66.01;102025.16;5015965;28;20373;-76
2022/11/30 10:43:45;;;;;;;7.43;4.78;;;;;;;6.44;65.68;102033.97;5014202;28;20376;-77
2022/11/30 10:46:25;;;;;;;6.32;4.43;;;;;;;6.27;66.00;102026.44;5013237;28;20408;-80
2022/11/30 10:48:58;;;;;;;6.95;4.78;;;;;;;6.37;65.46;102026.63;5013957;28;20787;-79
2022/11/30 10:51:25;;;;;;;8.07;4.93;;;;;;;6.35;65.79;102024.09;5027867;28;20445;-79
2022/11/30 10:53:51;;;;;;;6.65;4.80;;;;;;;6.26;66.06;102022.13;5014177;28;20458;-78
2022/11/30 10:56:16;;;;;;;7.03;5.00;;;;;;;6.43;65.87;102027.03;5015969;28;20392;-77
2022/11/30 10:59:10;;;;;;;7.63;5.30;;;;;;;6.46;65.97;102037.34;5033146;28;20473;-80
2022/11/30 11:01:38;;;;;;;8.57;5.55;;;;;;;6.42;65.81;102037.66;5024370;28;20374;-76
2022/11/30 11:04:11;;;;;;;7.28;5.07;;;;;;;6.34;66.09;102035.59;5013434;28;20444;-76
2022/11/30 11:06:52;;;;;;;8.65;5.10;;;;;;;6.41;65.65;102034.19;5018744;28;20393;-77
2022/11/30 11:09:49;;;;;;;8.27;5.43;;;;;;;6.48;65.77;102038.06;5013423;28;20380;-76
2022/11/30 11:12:16;;;;;;;7.43;4.88;;;;;;;6.10;66.18;102041.66;5013163;28;20395;-78
2022/11/30 11:14:42;;;;;;;9.25;6.10;;;;;;;6.31;65.79;102033.16;5012820;28;20391;-79
2022/11/30 11:17:16;;;;;;;7.50;5.20;;;;;;;6.28;65.94;102042.13;5027485;28;20397;-79
2022/11/30 11:19:43;;;;;;;6.95;5.00;;;;;;;6.26;65.90;102035.28;5013596;28;20384;-78
2022/11/30 11:22:19;;;;;;;7.88;5.07;;;;;;;6.22;65.79;102037.28;5013187;28;20472;-77
2022/11/30 11:24:46;;;;;;;6.95;4.47;;;;;;;6.01;66.36;102028.28;5013813;28;20388;-78
2022/11/30 11:27:38;;;;;;;5.72;4.20;;;;;;;5.80;66.46;102020.91;5029569;28;20389;-77
2022/11/30 11:30:07;;;;;;;7.32;5.20;;;;;;;6.02;66.86;102029.97;5020902;28;20418;-77
2022/11/30 11:32:33;;;;;;;7.47;5.30;;;;;;;5.96;67.02;102027.75;5018521;28;20386;-77
2022/11/30 11:34:59;;;;;;;8.70;5.72;;;;;;;5.99;67.08;102025.75;5023659;28;20388;-77
2022/11/30 11:37:36;;;;;;;8.73;5.32;;;;;;;5.98;66.78;102020.59;5026471;28;20378;-78